createdAt,value
2019-05-19T10:58:42.128Z,26.25
2019-05-19T11:01:11.350Z,26.48
2019-05-19T11:03:40.583Z,26.65
2019-05-19T11:06:09.912Z,26.69
2019-05-19T11:08:39.142Z,26.27
2019-05-19T11:11:08.460Z,25.68
2019-05-19T11:13:37.657Z,25.68
2019-05-19T11:16:06.928Z,25.87
2019-05-19T11:18:36.081Z,25.51
2019-05-19T11:21:05.346Z,24.99
2019-05-19T11:23:34.625Z,24.90
2019-05-19T11:26:04.062Z,25.42
2019-05-19T11:28:33.264Z,25.56
2019-05-19T11:31:02.580Z,25.24
2019-05-19T11:33:33.004Z,24.66
2019-05-19T11:36:02.317Z,24.99
2019-05-19T11:38:31.502Z,25.65
2019-05-19T11:41:00.720Z,25.94
2019-05-19T11:43:29.951Z,26.70
2019-05-19T11:45:59.286Z,26.64
2019-05-19T11:48:29.575Z,26.79
2019-05-19T11:50:59.007Z,26.06
2019-05-19T11:53:28.151Z,26.14
2019-05-19T11:56:06.197Z,26.19
2019-05-19T11:58:28.769Z,26.92
2019-05-19T12:00:57.985Z,26.78
2019-05-19T12:03:27.163Z,26.54
2019-05-19T12:05:56.356Z,26.24
2019-05-19T12:08:25.572Z,26.29
2019-05-19T12:10:54.800Z,26.21
2019-05-19T12:13:23.984Z,27.09
2019-05-19T12:15:53.148Z,27.24
2019-05-19T12:18:22.397Z,27.40
2019-05-19T12:20:51.629Z,27.90
2019-05-19T12:23:20.843Z,27.95
2019-05-19T12:25:50.048Z,27.18
2019-05-19T12:28:19.224Z,27.20
2019-05-19T12:30:48.426Z,27.65
2019-05-19T12:33:17.579Z,27.02
2019-05-19T12:35:46.799Z,26.15
2019-05-19T12:38:15.997Z,26.60
2019-05-19T12:40:45.145Z,27.18
2019-05-19T12:43:14.380Z,26.99
2019-05-19T12:45:43.736Z,26.53
2019-05-19T12:48:13.118Z,26.25
2019-05-19T12:50:42.485Z,26.43
2019-05-19T12:53:11.825Z,27.67
2019-05-19T12:55:40.987Z,28.44
2019-05-19T12:58:10.166Z,29.09
2019-05-19T13:00:40.187Z,29.07
2019-05-19T13:03:09.466Z,29.84
2019-05-19T13:05:38.676Z,29.24
2019-05-19T13:08:11.364Z,27.08
2019-05-19T13:10:39.203Z,28.31
2019-05-19T13:13:08.427Z,30.80
2019-05-19T13:15:37.786Z,31.10
2019-05-19T13:18:06.996Z,31.11
2019-05-19T13:20:36.350Z,28.51
2019-05-19T13:23:05.556Z,28.58
2019-05-19T13:25:37.053Z,29.13
2019-05-19T13:28:06.280Z,30.43
2019-05-19T13:30:35.512Z,31.87
2019-05-19T13:33:05.397Z,32.12
2019-05-19T13:35:34.633Z,32.55
2019-05-19T13:38:03.967Z,32.43
2019-05-19T13:40:33.317Z,29.87
2019-05-19T13:43:02.504Z,28.44
2019-05-19T13:45:31.887Z,27.27
2019-05-19T13:48:03.015Z,27.27
2019-05-19T13:50:32.397Z,27.26
2019-05-19T13:53:01.656Z,27.25
2019-05-19T13:55:30.905Z,27.17
2019-05-19T13:58:00.102Z,26.94
2019-05-19T14:00:29.254Z,26.46
2019-05-19T14:02:58.449Z,26.44
2019-05-19T14:05:27.645Z,26.71
2019-05-19T14:07:58.939Z,26.62
2019-05-19T14:10:28.129Z,27.61
2019-05-19T14:12:56.361Z,30.04
2019-05-19T14:15:24.602Z,30.71
2019-05-19T14:17:53.359Z,32.82
2019-05-19T14:20:21.569Z,33.36
2019-05-19T14:22:49.841Z,34.13
2019-05-19T14:25:18.093Z,33.95
2019-05-19T14:27:46.315Z,31.52
2019-05-19T14:30:14.582Z,33.00
2019-05-19T14:32:42.843Z,32.00
2019-05-19T14:35:11.099Z,30.87
2019-05-19T14:37:40.238Z,29.85
2019-05-19T14:40:09.856Z,28.08
2019-05-19T14:43:00.741Z,27.51
2019-05-19T14:45:30.174Z,27.14
2019-05-19T14:47:59.448Z,27.06
2019-05-19T14:50:30.295Z,27.16
2019-05-19T14:52:59.688Z,26.76
2019-05-19T14:55:29.059Z,26.49
2019-05-19T14:57:58.322Z,26.52
2019-05-19T15:00:27.505Z,26.24
2019-05-19T15:02:56.737Z,26.15
2019-05-19T15:05:25.974Z,25.81
2019-05-19T15:07:55.293Z,25.29
2019-05-19T15:10:24.498Z,25.01
2019-05-19T15:12:53.834Z,24.74
2019-05-19T15:15:23.000Z,24.61
2019-05-19T15:17:52.207Z,24.43
2019-05-19T15:20:21.458Z,24.59
2019-05-19T15:22:50.755Z,24.16
2019-05-19T15:25:19.985Z,24.14
2019-05-19T15:27:59.755Z,23.84
2019-05-19T15:30:20.103Z,23.97
2019-05-19T15:32:49.379Z,24.09
2019-05-19T15:35:18.650Z,23.84
2019-05-19T15:37:47.865Z,23.83
2019-05-19T15:40:17.127Z,23.78
2019-05-19T15:42:46.275Z,24.00
2019-05-19T15:45:15.621Z,24.14
2019-05-19T15:47:45.049Z,24.61
2019-05-19T15:50:14.251Z,24.72
2019-05-19T15:52:43.612Z,25.37
2019-05-19T15:55:12.922Z,25.26
2019-05-19T15:57:45.050Z,24.78
2019-05-19T16:00:14.808Z,24.17
2019-05-19T16:02:44.093Z,22.32
2019-05-19T16:05:13.513Z,19.80
2019-05-19T16:07:44.660Z,17.41
2019-05-19T16:10:14.727Z,17.03
2019-05-19T16:12:43.916Z,16.88
2019-05-19T16:15:15.304Z,16.68
2019-05-19T16:17:44.516Z,16.56
2019-05-19T16:20:17.234Z,16.41
2019-05-19T16:22:46.465Z,16.19
2019-05-19T16:25:15.634Z,16.23
2019-05-19T16:27:44.958Z,16.18
2019-05-19T16:30:14.347Z,16.08
2019-05-19T16:32:43.604Z,16.18
2019-05-19T16:35:12.940Z,16.27
2019-05-19T16:37:42.725Z,16.18
2019-05-19T16:40:12.164Z,16.22
2019-05-19T16:42:41.322Z,16.43
2019-05-19T16:45:10.742Z,16.64
2019-05-19T16:47:39.929Z,16.70
2019-05-19T16:50:09.294Z,16.72
2019-05-19T16:52:38.475Z,16.64
2019-05-19T16:55:23.294Z,16.49
2019-05-19T16:57:52.472Z,16.38
2019-05-19T17:00:22.327Z,16.29
2019-05-19T17:02:51.568Z,16.41
2019-05-19T17:05:20.883Z,16.48
2019-05-19T17:07:50.146Z,16.49
2019-05-19T17:10:19.625Z,16.46
2019-05-19T17:12:48.975Z,16.39
2019-05-19T17:15:18.524Z,16.49
2019-05-19T17:17:47.850Z,16.56
2019-05-19T17:20:17.172Z,16.66
2019-05-19T17:22:46.382Z,16.72
2019-05-19T17:25:15.652Z,16.73
2019-05-19T17:27:44.866Z,16.71
2019-05-19T17:30:14.645Z,16.78
2019-05-19T17:32:45.730Z,16.75
2019-05-19T17:35:16.226Z,16.42
2019-05-19T17:37:45.566Z,16.36
2019-05-19T17:40:15.664Z,16.36
2019-05-19T17:42:44.923Z,16.47
2019-05-19T17:45:15.388Z,16.36
2019-05-19T17:47:44.964Z,16.48
2019-05-19T17:50:15.662Z,16.63
2019-05-19T17:52:44.956Z,16.43
2019-05-19T17:55:15.697Z,16.27
2019-05-19T17:57:45.345Z,16.22
2019-05-19T18:00:18.320Z,16.18
2019-05-19T18:02:49.017Z,16.10
2019-05-19T18:05:21.455Z,16.06
2019-05-19T18:07:51.167Z,16.00
2019-05-19T18:10:21.464Z,15.86
2019-05-19T18:12:54.681Z,15.75
2019-05-19T18:15:24.253Z,15.65
2019-05-19T18:17:55.762Z,15.64
2019-05-19T18:20:25.079Z,15.57
2019-05-19T18:22:57.031Z,15.49
2019-05-19T18:25:29.852Z,15.37
2019-05-19T18:27:59.754Z,15.25
2019-05-19T18:30:29.596Z,15.22
2019-05-19T18:32:59.223Z,15.17
2019-05-19T18:35:29.736Z,15.17
2019-05-19T18:38:02.633Z,15.15
2019-05-19T18:40:32.211Z,15.11
2019-05-19T18:43:04.125Z,15.14
2019-05-19T18:45:33.402Z,15.10
2019-05-19T18:48:02.885Z,15.13
2019-05-19T18:50:32.296Z,15.14
2019-05-19T18:53:09.138Z,15.09
2019-05-19T18:55:40.286Z,15.06
2019-05-19T18:58:10.989Z,15.06
2019-05-19T19:00:40.563Z,15.04
2019-05-19T19:03:10.111Z,15.07
2019-05-19T19:05:39.883Z,15.01
2019-05-19T19:08:09.685Z,15.07
2019-05-19T19:10:39.419Z,15.11
2019-05-19T19:13:09.133Z,15.11
2019-05-19T19:15:41.643Z,15.09
2019-05-19T19:18:11.947Z,15.12
2019-05-19T19:20:41.754Z,15.13
2019-05-19T19:23:11.514Z,15.15
2019-05-19T19:25:40.969Z,15.14
2019-05-19T19:28:10.722Z,15.14
2019-05-19T19:30:40.166Z,15.12
2019-05-19T19:33:09.477Z,15.11
2019-05-19T19:35:39.764Z,15.11
2019-05-19T19:38:13.163Z,15.10
2019-05-19T19:40:42.395Z,15.11
2019-05-19T19:43:11.875Z,15.12
2019-05-19T19:45:41.442Z,15.10
2019-05-19T19:48:11.921Z,15.13
2019-05-19T19:50:43.037Z,15.13
2019-05-19T19:53:12.951Z,15.14
2019-05-19T19:55:43.058Z,15.12
2019-05-19T19:58:13.789Z,15.10
2019-05-19T20:00:44.963Z,15.09
2019-05-19T20:03:16.495Z,15.02
2019-05-19T20:05:47.487Z,15.04
2019-05-19T20:08:17.095Z,14.97
2019-05-19T20:10:48.407Z,15.01
2019-05-19T20:13:19.029Z,14.99
2019-05-19T20:15:48.801Z,14.96
2019-05-19T20:18:18.314Z,14.91
2019-05-19T20:20:47.584Z,14.93
2019-05-19T20:23:16.798Z,14.97
2019-05-19T20:25:46.017Z,15.01
2019-05-19T20:28:16.266Z,14.97
2019-05-19T20:30:45.505Z,15.05
2019-05-19T20:33:14.743Z,14.96
2019-05-19T20:35:46.548Z,15.00
2019-05-19T20:38:16.405Z,15.01
2019-05-19T20:40:46.924Z,14.97
2019-05-19T20:43:16.147Z,14.97
2019-05-19T20:45:45.425Z,15.02
2019-05-19T20:48:15.034Z,15.11
2019-05-19T20:50:44.384Z,15.11
2019-05-19T20:53:13.572Z,15.10
2019-05-19T20:55:42.838Z,15.12
2019-05-19T20:58:12.178Z,15.11
2019-05-19T21:00:49.941Z,15.18
2019-05-19T21:03:12.982Z,15.27
2019-05-19T21:05:42.155Z,15.25
2019-05-19T21:08:11.459Z,15.28
2019-05-19T21:10:40.916Z,15.32
2019-05-19T21:13:10.268Z,15.19
2019-05-19T21:15:39.604Z,15.13
2019-05-19T21:18:08.860Z,15.08
2019-05-19T21:20:38.113Z,15.00
2019-05-19T21:23:07.286Z,14.99
2019-05-19T21:25:36.747Z,15.01
2019-05-19T21:28:05.989Z,14.92
2019-05-19T21:30:35.492Z,14.93
2019-05-19T21:33:05.894Z,14.91
2019-05-19T21:35:35.308Z,14.95
2019-05-19T21:38:05.616Z,14.94
2019-05-19T21:40:34.822Z,14.98
2019-05-19T21:43:04.089Z,14.96
2019-05-19T21:45:33.260Z,15.02
2019-05-19T21:48:02.625Z,14.99
2019-05-19T21:50:31.821Z,14.94
2019-05-19T21:53:00.992Z,15.01
2019-05-19T21:55:30.209Z,15.01
2019-05-19T21:57:59.410Z,15.07
2019-05-19T22:00:30.696Z,15.06
2019-05-19T22:02:59.995Z,15.04
2019-05-19T22:05:29.191Z,15.04
2019-05-19T22:08:07.899Z,15.01
2019-05-19T22:10:37.215Z,15.05
2019-05-19T22:13:06.415Z,15.00
2019-05-19T22:15:35.824Z,14.97
2019-05-19T22:18:05.427Z,14.98
2019-05-19T22:20:34.972Z,14.95
2019-05-19T22:23:04.183Z,14.92
2019-05-19T22:25:33.386Z,14.90
2019-05-19T22:28:02.655Z,14.89
2019-05-19T22:30:31.967Z,14.83
2019-05-19T22:33:01.125Z,14.84
2019-05-19T22:35:30.297Z,14.82
2019-05-19T22:37:59.502Z,14.81
2019-05-19T22:40:28.670Z,14.79
2019-05-19T22:42:57.912Z,14.77
2019-05-19T22:45:27.203Z,14.75
2019-05-19T22:47:56.510Z,14.78
2019-05-19T22:50:25.711Z,14.80
2019-05-19T22:52:54.990Z,14.86
2019-05-19T22:55:24.159Z,14.88
2019-05-19T22:57:53.482Z,14.77
2019-05-19T23:00:22.964Z,14.73
2019-05-19T23:02:52.157Z,14.74
2019-05-19T23:05:21.341Z,14.74
2019-05-19T23:07:51.800Z,14.68
2019-05-19T23:10:22.511Z,14.63
2019-05-19T23:12:51.687Z,14.57
2019-05-19T23:15:21.164Z,14.50
2019-05-19T23:17:50.502Z,14.37
2019-05-19T23:20:19.643Z,14.29
2019-05-19T23:22:48.934Z,14.26
2019-05-19T23:25:18.246Z,14.13
2019-05-19T23:27:49.264Z,14.06
2019-05-19T23:30:18.822Z,13.98
2019-05-19T23:32:47.989Z,13.90
2019-05-19T23:35:17.337Z,13.84
2019-05-19T23:37:46.450Z,13.86
2019-05-19T23:40:15.756Z,13.86
2019-05-19T23:42:44.912Z,13.85
2019-05-19T23:45:14.082Z,13.81
2019-05-19T23:47:43.504Z,13.82
2019-05-19T23:50:12.913Z,13.76
2019-05-19T23:52:42.166Z,13.64
2019-05-19T23:55:13.794Z,13.64
2019-05-19T23:57:42.960Z,13.62
